Avery, CA

5:10 AM PDT on July 30, 2015 (GMT -0700)
Meadowmont (K6NFL) | | Change Station
CLOSE
Current Station
Personal Weather Station
Location: Arnold, CA
Elevation: 4080 ft
Nearby Weather Stations

Elev 4080 ft 38.24 °N, 120.37 °W | Updated 11 seconds ago

Clear
Clear
70.1 °F
Feels Like 76 °F
N
0.0
Wind Variable Wind from NNW
Gusts 0.0 mph

Today
High -- | Low -- °F
--% Chance of Precip.
Yesterday
High -- | Low -- °F
Precip. -- in
6:02 AM 8:13 PM
Waxing Gibbous, 99% visible
Pressure 29.99 in
Visibility 10.0 miles
Clouds Clear
Heat Index 76 °F
Dew Point 35 °F
Humidity 28%
Rainfall 0.00 in
Snow Depth Not available.
UV 0 out of 12
Pollen 6.20 out of 12
Air Quality Not available.
Flu Activity Not available.
METAR KO22 301115Z AUTO 00000KT 10SM CLR 20/07 A2999 RMK AO1

More Conditions Fewer Conditions

Pressure 29.99 in
Visibility 10.0 miles
Clouds Clear
Heat Index 76 °F
Dew Point 35 °F
Humidity 28%
Rainfall 0.00 in
Snow Depth Not available.
UV 0 out of 12
Pollen 6.20 out of 12
Air Quality Not available.
Flu Activity Not available.
METAR KO22 301115Z AUTO 00000KT 10SM CLR 20/07 A2999 RMK AO1

More Conditions Fewer Conditions

10-Day Weather Forecast

×

Almanac

Astronomy

Jul. 30, 2015 Rise Set
Actual Time
Civil Twilight
Nautical Twilight
Astronomical Twilight
Moon
Length of Visible Light
Length of Day
Tomorrow will be .
, % of the Moon is Illuminated

Today's Extremes

State Highs State Lows

Community

WunderPhotos

Upload Photos

1,842,339 photos uploaded!

WunderBlogs® & News

Nearby

Air Quality

  Air Quality AQ Index Pollutant
Not available.

Snow Depth

Station Depth Elevation

Earthquake Activity

City Distance Mag. Time & Date
Minimum magnitude displayed is 2.5.

Coastal Water Temperatures

Place Temperature

Stations

Nearby Weather Stations

Station Location Temp. Windchill Dew Point Humidity Wind Precip. Elev Updated Type